Time;durP1;ratioP1;P1;durP2;ratioP2;P2;SDS_P1;SDS_P2;PMS_P1;PMS_P2;Temp;Humidity;BMP_temperature;BMP_pressure;BME280_temperature;BME280_humidity;BME280_pressure;Samples;Min_cycle;Max_cycle;Signal;HPM_P1;HPM_P2
2022/10/02 00:01:12;;;;;;;4.20;2.03;;;;;;;11.95;100.00;154428.00;5055531;28;20446;-75
2022/10/02 00:03:42;;;;;;;4.53;2.07;;;;;;;11.95;100.00;154428.00;5033948;28;20550;-75
2022/10/02 00:06:12;;;;;;;4.97;1.90;;;;;;;11.93;100.00;154424.16;5036165;28;20548;-75
2022/10/02 00:08:41;;;;;;;4.00;1.93;;;;;;;11.94;100.00;154426.72;5051033;28;20508;-75
2022/10/02 00:11:10;;;;;;;3.70;2.50;;;;;;;11.93;100.00;154422.84;5048980;28;20945;-75
2022/10/02 00:13:39;;;;;;;3.00;2.03;;;;;;;11.94;100.00;154426.72;5035419;28;20440;-75
2022/10/02 00:16:13;;;;;;;5.97;2.20;;;;;;;11.96;100.00;154431.94;5039429;28;20460;-75
2022/10/02 00:18:40;;;;;;;3.80;2.50;;;;;;;11.96;100.00;154431.94;5043774;28;20789;-75
2022/10/02 00:21:12;;;;;;;4.10;2.17;;;;;;;11.97;100.00;154434.50;5054992;28;20517;-75
2022/10/02 00:23:42;;;;;;;2.77;1.80;;;;;;;11.96;100.00;154431.94;5054018;28;20454;-75
2022/10/02 00:26:13;;;;;;;9.60;5.50;;;;;;;11.98;100.00;154437.09;5051698;28;20462;-75
2022/10/02 00:28:45;;;;;;;3.47;1.90;;;;;;;11.98;100.00;154437.09;5055276;28;20885;-75
2022/10/02 00:31:23;;;;;;;4.43;2.70;;;;;;;11.97;100.00;154434.50;5053932;28;20482;-75
2022/10/02 00:33:59;;;;;;;6.47;2.37;;;;;;;11.98;100.00;154437.09;5053693;28;20470;-75
2022/10/02 00:36:34;;;;;;;3.43;1.80;;;;;;;11.99;100.00;154439.66;5054320;28;20455;-75
2022/10/02 00:39:08;;;;;;;4.77;1.67;;;;;;;12.00;100.00;154442.28;5053143;28;20427;-75
2022/10/02 00:42:11;;;;;;;3.97;2.10;;;;;;;12.03;100.00;154448.75;5046980;28;20538;-75
2022/10/02 00:44:53;;;;;;;3.20;1.80;;;;;;;12.01;100.00;154444.91;5056394;28;20538;-75
2022/10/02 00:47:31;;;;;;;2.30;1.80;;;;;;;12.01;100.00;154444.91;5051744;28;20455;-75
2022/10/02 00:50:06;;;;;;;3.43;2.10;;;;;;;12.02;100.00;154446.19;5054951;28;20518;-75
2022/10/02 00:52:44;;;;;;;5.10;1.63;;;;;;;12.05;100.00;154455.25;5062334;28;20437;-75
2022/10/02 00:55:25;;;;;;;3.00;1.60;;;;;;;12.03;100.00;154450.06;5052765;28;20555;-75
2022/10/02 00:58:02;;;;;;;8.23;2.37;;;;;;;12.03;100.00;154450.06;5049328;28;20450;-75
2022/10/02 01:00:30;;;;;;;2.07;1.67;;;;;;;12.02;100.00;154447.44;5033141;28;20452;-75
2022/10/02 01:03:15;;;;;;;3.50;1.97;;;;;;;12.02;100.00;154446.19;5034217;28;20466;-75
2022/10/02 01:05:42;;;;;;;5.63;2.37;;;;;;;12.03;100.00;154450.06;5045187;28;20815;-75
2022/10/02 01:08:09;;;;;;;2.60;1.70;;;;;;;12.06;100.00;154457.84;5056369;28;20437;-75
2022/10/02 01:10:37;;;;;;;3.73;1.90;;;;;;;12.03;100.00;154450.06;5038996;28;20440;-75
2022/10/02 01:13:04;;;;;;;7.43;2.17;;;;;;;12.03;100.00;154450.06;5055918;28;20446;-75
2022/10/02 01:15:33;;;;;;;2.50;1.67;;;;;;;12.03;100.00;154450.06;5035731;28;20793;-75
2022/10/02 01:18:01;;;;;;;5.77;2.23;;;;;;;12.02;100.00;154446.19;5053626;28;20477;-75
2022/10/02 01:20:34;;;;;;;3.07;1.90;;;;;;;12.03;100.00;154450.06;5036145;28;20435;-75
2022/10/02 01:23:06;;;;;;;4.77;2.40;;;;;;;12.05;100.00;154455.25;5059278;28;20466;-75
2022/10/02 01:25:34;;;;;;;5.30;2.03;;;;;;;12.05;100.00;154453.94;5071482;28;20445;-75
2022/10/02 01:28:01;;;;;;;4.23;1.80;;;;;;;12.07;100.00;154459.16;5034259;28;20435;-75
2022/10/02 01:30:29;;;;;;;3.47;1.77;;;;;;;12.03;100.00;154448.75;5015701;28;20432;-75
2022/10/02 01:32:57;;;;;;;3.07;1.60;;;;;;;12.04;100.00;154452.69;5069124;28;20458;-75
2022/10/02 01:35:26;;;;;;;2.23;1.50;;;;;;;12.05;100.00;154455.25;5055635;28;21097;-75
2022/10/02 01:37:54;;;;;;;2.10;1.40;;;;;;;12.09;100.00;154464.31;5055696;28;20432;-75
2022/10/02 01:40:24;;;;;;;5.47;1.97;;;;;;;12.05;100.00;154455.25;5073524;28;20430;-75
2022/10/02 01:42:53;;;;;;;3.60;1.93;;;;;;;12.11;100.00;154470.81;5043788;28;20503;-75
2022/10/02 01:45:24;;;;;;;2.47;1.93;;;;;;;12.12;100.00;154473.41;5047018;28;21070;-75
2022/10/02 01:47:58;;;;;;;5.27;1.83;;;;;;;12.10;100.00;154468.19;5073895;28;20517;-75
2022/10/02 01:50:30;;;;;;;3.43;2.00;;;;;;;12.11;100.00;154469.50;5070046;28;20532;-75
2022/10/02 01:53:01;;;;;;;2.83;1.63;;;;;;;12.10;100.00;154468.19;5055463;28;20525;-75
2022/10/02 01:55:35;;;;;;;4.40;1.80;;;;;;;12.10;100.00;154468.19;5073154;28;20461;-75
2022/10/02 01:58:15;;;;;;;3.00;1.33;;;;;;;12.10;100.00;154468.19;5055325;28;20476;-75
2022/10/02 02:00:51;;;;;;;3.30;1.70;;;;;;;12.11;100.00;154470.81;5038264;28;20451;-75
2022/10/02 02:03:22;;;;;;;4.50;1.70;;;;;;;12.12;100.00;154472.13;5053029;28;20552;-75
2022/10/02 02:05:54;;;;;;;3.53;1.80;;;;;;;12.12;100.00;154473.41;5041640;28;20471;-75
2022/10/02 02:08:27;;;;;;;11.40;2.50;;;;;;;12.13;100.00;154474.66;5068376;28;20525;-75
2022/10/02 02:11:05;;;;;;;4.40;1.93;;;;;;;12.14;100.00;154477.28;5044630;28;20530;-75
2022/10/02 02:13:37;;;;;;;4.83;2.00;;;;;;;12.13;100.00;154474.66;5047882;28;20436;-75
2022/10/02 02:16:06;;;;;;;4.30;2.10;;;;;;;12.12;100.00;154473.41;5033152;28;20458;-75
2022/10/02 02:18:35;;;;;;;5.03;2.23;;;;;;;12.14;100.00;154478.59;5067077;28;20449;-75
2022/10/02 02:21:06;;;;;;;2.70;1.70;;;;;;;12.15;100.00;154479.91;5051037;28;20487;-75
2022/10/02 02:23:36;;;;;;;3.23;2.10;;;;;;;12.15;100.00;154481.16;5033415;28;20468;-75
2022/10/02 02:26:06;;;;;;;5.30;2.10;;;;;;;12.14;100.00;154478.59;5031442;28;20493;-75
2022/10/02 02:28:35;;;;;;;3.13;2.10;;;;;;;12.15;100.00;154479.91;5034720;28;20474;-75
2022/10/02 02:31:02;;;;;;;4.07;1.80;;;;;;;12.16;100.00;154482.47;5052705;28;20560;-75
2022/10/02 02:33:33;;;;;;;4.60;2.00;;;;;;;12.20;100.00;154494.13;5052900;28;20458;-75
2022/10/02 02:36:03;;;;;;;4.47;2.10;;;;;;;12.23;100.00;154501.91;5067558;28;20892;-75
2022/10/02 02:38:32;;;;;;;3.80;2.20;;;;;;;12.21;100.00;154495.41;5050941;28;20418;-75
2022/10/02 02:41:03;;;;;;;2.30;1.50;;;;;;;12.23;100.00;154499.34;5049874;28;20446;-75
2022/10/02 02:43:32;;;;;;;4.80;2.10;;;;;;;12.27;100.00;154511.00;5052124;28;20451;-75
2022/10/02 02:46:03;;;;;;;3.03;2.30;;;;;;;12.25;100.00;154505.81;5051462;28;20427;-75
2022/10/02 02:48:35;;;;;;;4.23;2.30;;;;;;;12.25;100.00;154504.50;5051131;28;20944;-75
2022/10/02 02:51:06;;;;;;;3.20;2.17;;;;;;;12.23;100.00;154500.66;5052174;28;20443;-75
2022/10/02 02:53:35;;;;;;;5.10;2.20;;;;;;;12.25;100.00;154504.50;5052373;28;20446;-75
2022/10/02 02:56:04;;;;;;;7.10;2.33;;;;;;;12.23;100.00;154501.91;5051037;28;20438;-75
2022/10/02 02:58:34;;;;;;;3.80;2.00;;;;;;;12.21;100.00;154496.72;5049810;28;20465;-75
2022/10/02 03:01:02;;;;;;;2.70;1.83;;;;;;;12.21;100.00;154496.72;5050618;28;20463;-75
2022/10/02 03:03:29;;;;;;;2.77;2.00;;;;;;;12.23;100.00;154499.34;5052288;28;20948;-74
2022/10/02 03:06:01;;;;;;;3.50;2.50;;;;;;;12.23;100.00;154500.66;5045266;28;20565;-75
2022/10/02 03:08:30;;;;;;;3.63;2.13;;;;;;;12.21;100.00;154495.41;5058267;28;20450;-74
2022/10/02 03:11:05;;;;;;;4.70;2.13;;;;;;;12.20;100.00;154494.13;5054644;28;20455;-74
2022/10/02 03:13:44;;;;;;;4.50;2.07;;;;;;;12.19;100.00;154491.56;5031956;28;20431;-74
2022/10/02 03:16:25;;;;;;;4.37;2.03;;;;;;;12.20;100.00;154492.84;5030938;28;20428;-74
2022/10/02 03:19:06;;;;;;;3.33;1.83;;;;;;;12.20;100.00;154494.13;5031674;28;20541;-74
2022/10/02 03:21:38;;;;;;;3.03;1.87;;;;;;;12.21;100.00;154495.41;5052680;28;20914;-74
2022/10/02 03:24:08;;;;;;;5.07;1.87;;;;;;;12.19;100.00;154490.25;5050828;28;20471;-74
2022/10/02 03:26:37;;;;;;;5.57;2.23;;;;;;;12.19;100.00;154491.56;5040305;28;20451;-74
2022/10/02 03:29:08;;;;;;;5.67;2.40;;;;;;;12.18;100.00;154488.94;5050293;28;20427;-74
2022/10/02 03:31:36;;;;;;;11.70;2.50;;;;;;;12.21;100.00;154496.72;5050934;28;20443;-74
2022/10/02 03:34:03;;;;;;;5.47;1.83;;;;;;;12.22;100.00;154498.03;5033905;28;20442;-74
2022/10/02 03:36:30;;;;;;;3.00;1.93;;;;;;;12.21;100.00;154495.41;5050297;28;20802;-74
2022/10/02 03:39:01;;;;;;;3.50;2.00;;;;;;;12.20;100.00;154494.13;5051605;28;20462;-74
2022/10/02 03:41:27;;;;;;;7.47;2.53;;;;;;;12.20;100.00;154494.13;5051332;28;20450;-74
2022/10/02 03:43:54;;;;;;;3.37;2.13;;;;;;;12.20;100.00;154494.13;5052364;28;20960;-74
2022/10/02 03:46:21;;;;;;;2.70;1.80;;;;;;;12.19;100.00;154491.56;5049173;28;20944;-74
2022/10/02 03:48:49;;;;;;;5.10;1.90;;;;;;;12.21;100.00;154496.72;5051523;28;20431;-74
2022/10/02 03:51:15;;;;;;;3.00;1.87;;;;;;;12.22;100.00;154498.03;5050681;28;20485;-74
2022/10/02 03:53:42;;;;;;;4.60;2.40;;;;;;;12.20;100.00;154494.13;5053189;28;20890;-74
2022/10/02 03:56:13;;;;;;;4.57;2.03;;;;;;;12.20;100.00;154494.13;5053942;28;20446;-74
2022/10/02 03:58:45;;;;;;;2.77;2.17;;;;;;;12.23;100.00;154499.34;5053967;28;20846;-74
2022/10/02 04:01:14;;;;;;;2.97;2.00;;;;;;;12.20;100.00;154492.84;5076009;28;20764;-74
2022/10/02 04:03:45;;;;;;;3.60;2.03;;;;;;;12.19;100.00;154491.56;5066337;28;20467;-74
2022/10/02 04:06:16;;;;;;;4.53;2.50;;;;;;;12.19;100.00;154491.56;5050964;28;20585;-74
2022/10/02 04:08:46;;;;;;;5.87;1.83;;;;;;;12.18;100.00;154488.94;5038311;28;20995;-74
2022/10/02 04:11:16;;;;;;;3.30;2.40;;;;;;;12.18;100.00;154487.63;5030997;28;20790;-74
2022/10/02 04:13:47;;;;;;;6.90;2.40;;;;;;;12.17;100.00;154486.38;5044981;28;20435;-74
2022/10/02 04:16:15;;;;;;;3.43;1.83;;;;;;;12.18;100.00;154487.63;5042647;28;20508;-74
2022/10/02 04:18:49;;;;;;;3.07;2.20;;;;;;;12.17;100.00;154486.38;5053588;28;20534;-74
2022/10/02 04:21:31;;;;;;;4.43;2.00;;;;;;;12.18;100.00;154487.63;5037347;28;20450;-74
2022/10/02 04:24:01;;;;;;;5.73;2.57;;;;;;;12.18;100.00;154488.94;5055353;28;20465;-74
2022/10/02 04:26:32;;;;;;;3.37;2.20;;;;;;;12.17;100.00;154486.38;5056087;28;20469;-74
2022/10/02 04:29:02;;;;;;;3.90;2.60;;;;;;;12.17;100.00;154486.38;5052418;28;20458;-74
2022/10/02 04:31:29;;;;;;;4.57;1.90;;;;;;;12.19;100.00;154490.25;5054634;28;20465;-74
2022/10/02 04:34:01;;;;;;;4.10;2.20;;;;;;;12.18;100.00;154488.94;5065104;28;20438;-74
2022/10/02 04:36:39;;;;;;;3.50;1.93;;;;;;;12.18;100.00;154487.63;5067568;28;20474;-74
2022/10/02 04:39:34;;;;;;;3.60;2.30;;;;;;;12.18;100.00;154488.94;5054537;28;20449;-74
2022/10/02 04:42:14;;;;;;;4.07;1.97;;;;;;;12.18;100.00;154487.63;5053022;28;20465;-74
2022/10/02 04:44:54;;;;;;;3.50;2.20;;;;;;;12.17;100.00;154485.06;5053328;28;20463;-74
2022/10/02 04:47:37;;;;;;;6.27;1.73;;;;;;;12.16;100.00;154483.78;5052438;28;20457;-74
2022/10/02 04:50:25;;;;;;;2.87;1.90;;;;;;;12.16;100.00;154483.78;5055872;28;20898;-74
2022/10/02 04:53:10;;;;;;;2.30;1.90;;;;;;;12.16;100.00;154483.78;5053641;28;20777;-74
2022/10/02 04:55:47;;;;;;;4.80;1.90;;;;;;;12.17;100.00;154486.38;5058157;28;20461;-74
2022/10/02 04:58:27;;;;;;;3.90;1.90;;;;;;;12.16;100.00;154483.78;5056664;28;20446;-74
2022/10/02 05:01:01;;;;;;;4.23;2.40;;;;;;;12.16;100.00;154483.78;5041208;28;20804;-74
2022/10/02 05:03:41;;;;;;;3.40;2.10;;;;;;;12.14;100.00;154478.59;5054021;28;20572;-74
2022/10/02 05:06:19;;;;;;;4.07;2.00;;;;;;;12.14;100.00;154478.59;5038876;28;20483;-74
2022/10/02 05:09:01;;;;;;;5.40;2.67;;;;;;;12.14;100.00;154477.28;5041704;28;20446;-74
2022/10/02 05:11:36;;;;;;;3.90;2.10;;;;;;;12.14;100.00;154477.28;5031430;28;20452;-74
2022/10/02 05:14:25;;;;;;;4.03;2.33;;;;;;;12.14;100.00;154478.59;5024143;28;21024;-74
2022/10/02 05:16:59;;;;;;;3.23;2.10;;;;;;;12.13;100.00;154474.66;5039688;28;20460;-74
2022/10/02 05:19:40;;;;;;;6.60;1.90;;;;;;;12.12;100.00;154472.13;5038605;28;20443;-74
2022/10/02 05:22:35;;;;;;;3.33;2.00;;;;;;;12.11;100.00;154469.50;5040377;28;20465;-74
2022/10/02 05:25:36;;;;;;;4.17;2.00;;;;;;;12.11;100.00;154470.81;5042184;28;20971;-74
2022/10/02 05:28:14;;;;;;;7.67;2.47;;;;;;;12.10;100.00;154468.19;5018282;28;20448;-74
2022/10/02 05:30:46;;;;;;;2.90;2.13;;;;;;;12.10;100.00;154466.88;5038154;28;20590;-74
2022/10/02 05:33:31;;;;;;;4.03;2.20;;;;;;;12.09;100.00;154464.31;5039470;28;20878;-74
2022/10/02 05:36:22;;;;;;;5.90;3.47;;;;;;;12.10;100.00;154466.88;5038824;28;20474;-74
2022/10/02 05:39:01;;;;;;;3.30;2.37;;;;;;;12.09;100.00;154465.63;5038743;28;20451;-74
2022/10/02 05:41:35;;;;;;;4.70;2.17;;;;;;;12.09;100.00;154465.63;5038482;28;20955;-74
2022/10/02 05:44:07;;;;;;;2.53;1.93;;;;;;;12.09;100.00;154465.63;5038050;28;20483;-74
2022/10/02 05:46:38;;;;;;;3.00;2.37;;;;;;;12.09;100.00;154464.31;5037055;28;20455;-74
2022/10/02 05:49:09;;;;;;;3.20;2.90;;;;;;;12.09;100.00;154465.63;5039537;28;20451;-74
2022/10/02 05:51:41;;;;;;;4.43;3.37;;;;;;;12.09;100.00;154465.63;5044083;28;20986;-74
2022/10/02 05:54:21;;;;;;;4.27;2.83;;;;;;;12.10;100.00;154466.88;5035239;28;20539;-74
2022/10/02 05:56:55;;;;;;;5.27;2.53;;;;;;;12.10;100.00;154466.88;5021367;28;20458;-74
2022/10/02 05:59:28;;;;;;;3.30;2.40;;;;;;;12.11;100.00;154470.81;5038483;28;20479;-74
2022/10/02 06:01:56;;;;;;;5.13;2.80;;;;;;;12.11;100.00;154470.81;5031122;28;20465;-74
2022/10/02 06:04:27;;;;;;;4.77;2.40;;;;;;;12.12;100.00;154473.41;5036258;28;20463;-74
2022/10/02 06:06:55;;;;;;;3.97;2.60;;;;;;;12.12;100.00;154473.41;5039297;28;20486;-74
2022/10/02 06:09:24;;;;;;;3.73;2.97;;;;;;;12.13;100.00;154475.97;5038237;28;20930;-74
2022/10/02 06:11:55;;;;;;;2.50;2.30;;;;;;;12.13;100.00;154475.97;5039507;28;20451;-74
2022/10/02 06:14:26;;;;;;;7.03;3.30;;;;;;;12.14;100.00;154477.28;5038271;28;20440;-75
2022/10/02 06:16:57;;;;;;;3.20;2.50;;;;;;;12.14;100.00;154478.59;5037209;28;20450;-74
2022/10/02 06:19:27;;;;;;;3.07;2.30;;;;;;;12.16;100.00;154482.47;5020242;28;20453;-74
2022/10/02 06:21:57;;;;;;;5.53;2.63;;;;;;;12.17;100.00;154486.38;5035911;28;20454;-74
2022/10/02 06:24:27;;;;;;;3.73;2.60;;;;;;;12.19;100.00;154490.25;5045031;28;20548;-74
2022/10/02 06:26:59;;;;;;;3.13;2.47;;;;;;;12.20;100.00;154494.13;5021017;28;20810;-74
2022/10/02 06:29:31;;;;;;;3.10;2.30;;;;;;;12.19;100.00;154491.56;5038742;28;20447;-74
2022/10/02 06:32:06;;;;;;;5.80;2.70;;;;;;;12.21;100.00;154496.72;5040746;28;20553;-74
2022/10/02 06:34:32;;;;;;;5.60;3.17;;;;;;;12.23;100.00;154499.34;5035777;28;20591;-74
2022/10/02 06:37:11;;;;;;;3.27;2.60;;;;;;;12.24;100.00;154503.19;5038779;28;20788;-74
2022/10/02 06:40:05;;;;;;;4.60;2.70;;;;;;;12.25;100.00;154504.50;5037764;28;20458;-74
2022/10/02 06:42:43;;;;;;;4.83;2.40;;;;;;;12.25;100.00;154505.81;5001475;28;20450;-74
2022/10/02 06:45:18;;;;;;;2.77;1.70;;;;;;;12.26;100.00;154507.13;5035139;28;20479;-74
2022/10/02 06:47:58;;;;;;;6.60;2.50;;;;;;;12.27;100.00;154509.69;5037419;28;20452;-74
2022/10/02 06:50:35;;;;;;;3.93;2.50;;;;;;;12.27;100.00;154509.69;5038432;28;20752;-74
2022/10/02 06:53:06;;;;;;;3.13;2.00;;;;;;;12.27;100.00;154509.69;5019162;28;20459;-74
2022/10/02 06:55:42;;;;;;;5.43;3.10;;;;;;;12.28;100.00;154513.59;5036353;28;20933;-74
2022/10/02 06:58:24;;;;;;;4.27;2.60;;;;;;;12.28;100.00;154513.59;5036345;28;20742;-74
2022/10/02 07:00:55;;;;;;;5.43;2.63;;;;;;;12.31;100.00;154521.34;5036958;28;20878;-74
2022/10/02 07:03:33;;;;;;;4.20;2.37;;;;;;;12.31;100.00;154521.34;5032832;28;20451;-74
2022/10/02 07:06:16;;;;;;;4.80;2.67;;;;;;;12.30;100.00;154517.47;5041483;28;21056;-74
2022/10/02 07:09:00;;;;;;;4.70;2.30;;;;;;;12.31;100.00;154520.09;5016442;28;20486;-74
2022/10/02 07:11:32;;;;;;;4.37;2.70;;;;;;;12.32;100.00;154523.94;5042644;28;20459;-74
2022/10/02 07:14:18;;;;;;;5.03;2.83;;;;;;;12.34;100.00;154527.88;5037998;28;20502;-74
2022/10/02 07:17:04;;;;;;;4.50;3.30;;;;;;;12.36;100.00;154534.34;5036660;28;20449;-74
2022/10/02 07:19:42;;;;;;;4.80;3.67;;;;;;;12.38;100.00;154538.22;5027763;28;20435;-73
2022/10/02 07:22:19;;;;;;;5.40;3.90;;;;;;;12.36;100.00;154533.03;5034171;28;20506;-73
2022/10/02 07:24:59;;;;;;;4.50;3.60;;;;;;;12.37;100.00;154535.59;5036745;28;20471;-74
2022/10/02 07:27:31;;;;;;;9.00;3.40;;;;;;;12.39;100.00;154540.84;5036127;28;20447;-74
2022/10/02 07:30:03;;;;;;;83.83;8.17;;;;;;;12.40;100.00;154543.41;5041005;28;20435;-73
2022/10/02 07:32:47;;;;;;;81.97;8.03;;;;;;;12.40;100.00;154543.41;5039541;28;20439;-74
2022/10/02 07:35:24;;;;;;;34.87;6.80;;;;;;;12.35;100.00;154530.44;5037972;28;20442;-74
2022/10/02 07:38:00;;;;;;;3.60;3.27;;;;;;;12.33;100.00;154526.56;5039470;28;20438;-74
2022/10/02 07:40:34;;;;;;;3.53;3.07;;;;;;;12.33;100.00;154525.25;5040380;28;20450;-74
2022/10/02 07:43:12;;;;;;;4.77;4.00;;;;;;;12.32;100.00;154522.66;5048704;28;21005;-74
2022/10/02 07:45:41;;;;;;;5.60;3.60;;;;;;;12.31;100.00;154520.09;5034841;28;20483;-74
2022/10/02 07:48:19;;;;;;;6.43;3.20;;;;;;;12.30;100.00;154518.78;5044607;28;20531;-74
2022/10/02 07:50:56;;;;;;;4.10;3.40;;;;;;;12.33;100.00;154525.25;5038861;28;20461;-74
2022/10/02 07:53:27;;;;;;;5.93;4.40;;;;;;;12.33;100.00;154526.56;5044011;28;20450;-74
2022/10/02 07:55:55;;;;;;;5.00;4.50;;;;;;;12.34;100.00;154529.13;5041286;28;20586;-74
2022/10/02 07:58:30;;;;;;;5.97;4.90;;;;;;;12.40;100.00;154543.41;5039792;28;20451;-75
2022/10/02 08:01:00;;;;;;;8.27;4.20;;;;;;;12.44;100.00;154553.78;5039535;28;20564;-74
2022/10/02 08:03:32;;;;;;;8.27;4.97;;;;;;;12.44;100.00;154555.09;5041491;28;20458;-74
2022/10/02 08:05:59;;;;;;;6.00;4.23;;;;;;;12.46;100.00;154558.97;5040939;28;20478;-74
2022/10/02 08:08:28;;;;;;;4.50;3.97;;;;;;;12.50;100.00;154569.31;5042109;28;20542;-74
2022/10/02 08:10:57;;;;;;;4.43;4.00;;;;;;;12.52;100.00;154574.53;5042307;28;20454;-73
2022/10/02 08:13:28;;;;;;;7.07;5.13;;;;;;;12.57;100.00;154588.81;5042368;28;20446;-73
2022/10/02 08:15:55;;;;;;;9.73;4.00;;;;;;;12.62;100.00;154601.78;5040971;28;20443;-73
2022/10/02 08:18:27;;;;;;;5.90;4.40;;;;;;;12.62;100.00;154601.78;5044497;28;20993;-89
2022/10/02 08:20:55;;;;;;;7.67;4.43;;;;;;;12.64;100.00;154605.66;5035909;28;20872;-89
2022/10/02 08:23:24;;;;;;;7.53;4.53;;;;;;;12.64;100.00;154606.94;5036951;28;20454;-88
2022/10/02 08:25:56;;;;;;;12.93;4.73;;;;;;;12.66;100.00;154610.81;5036234;28;20483;-89
2022/10/02 08:28:25;;;;;;;5.43;3.97;;;;;;;12.64;100.00;154606.94;5036995;28;20485;-89
2022/10/02 08:30:52;;;;;;;6.30;3.77;;;;;;;12.67;100.00;154613.44;5038767;28;20448;-89
2022/10/02 08:33:21;;;;;;;4.10;3.43;;;;;;;12.68;100.00;154616.03;5042756;28;20861;-89
2022/10/02 08:35:58;;;;;;;7.10;4.13;;;;;;;12.75;100.00;154634.19;5045690;28;20435;-89
2022/10/02 08:38:35;;;;;;;5.47;3.67;;;;;;;12.89;100.00;154669.22;5055574;28;20451;-89
2022/10/02 08:41:35;;;;;;;8.43;3.60;;;;;;;12.86;100.00;154662.72;5037001;28;20450;-89
2022/10/02 08:44:21;;;;;;;5.43;3.80;;;;;;;12.89;100.00;154670.53;5043199;28;20460;-89
2022/10/02 08:47:21;;;;;;;3.90;3.50;;;;;;;12.91;100.00;154675.69;5051957;28;20538;-89
2022/10/02 08:50:06;;;;;;;6.57;4.03;;;;;;;12.95;100.00;154686.06;5042274;28;20441;-90
2022/10/02 08:53:05;;;;;;;5.90;3.63;;;;;;;13.08;100.00;154719.81;5074291;28;20893;-89
2022/10/02 08:55:45;;;;;;;4.33;3.47;;;;;;;13.20;100.00;154751.00;5034311;28;20539;-90
2022/10/02 08:58:47;;;;;;;5.00;3.83;;;;;;;13.35;100.00;154788.59;5035149;28;20447;-90
2022/10/02 09:01:27;;;;;;;5.83;3.90;;;;;;;13.45;100.00;154813.28;5035367;28;20467;-90
2022/10/02 09:04:27;;;;;;;6.50;4.00;;;;;;;13.61;100.00;154856.06;5037844;28;20466;-90
2022/10/02 09:07:24;;;;;;;10.07;4.30;;;;;;;13.58;100.00;154847.03;5071059;28;20868;-90
2022/10/02 09:10:31;;;;;;;6.07;3.70;;;;;;;13.70;100.00;154878.16;5077198;28;20453;-89
2022/10/02 09:13:34;;;;;;;7.47;5.17;;;;;;;13.90;100.00;154930.06;4960240;28;20463;-74
2022/10/02 09:16:08;;;;;;;5.97;4.73;;;;;;;13.91;100.00;154932.66;5055285;28;20461;-73
2022/10/02 09:18:52;;;;;;;5.60;4.27;;;;;;;13.81;100.00;154908.03;5038940;28;20489;-75
2022/10/02 09:21:21;;;;;;;6.40;5.67;;;;;;;13.85;100.00;154918.38;5039107;28;20936;-74
2022/10/02 09:24:21;;;;;;;7.20;4.70;;;;;;;13.86;100.00;154919.69;5040310;28;20462;-74
2022/10/02 09:27:24;;;;;;;9.07;4.20;;;;;;;14.01;100.00;154958.63;5039021;28;20467;-73
2022/10/02 09:30:22;;;;;;;4.97;4.37;;;;;;;14.21;100.00;155010.59;5038794;28;20455;-74
2022/10/02 09:33:23;;;;;;;8.37;4.17;;;;;;;14.34;100.00;155044.41;5038581;28;20485;-74
2022/10/02 09:36:06;;;;;;;7.70;4.53;;;;;;;14.41;100.00;155062.56;5041736;28;20462;-74
2022/10/02 09:39:04;;;;;;;7.10;3.93;;;;;;;14.54;100.00;155095.03;5039607;28;20490;-75
2022/10/02 09:42:03;;;;;;;6.20;4.20;;;;;;;14.67;100.00;155128.78;5037947;28;20953;-74
2022/10/02 09:45:16;;;;;;;6.00;4.07;;;;;;;14.73;100.00;155144.38;4995553;28;20949;-75
2022/10/02 09:48:19;;;;;;;6.50;3.67;;;;;;;14.78;100.00;155156.06;5036524;28;20487;-74
2022/10/02 09:51:09;;;;;;;5.73;3.90;;;;;;;14.82;100.00;155166.47;5038893;28;20475;-75
2022/10/02 09:54:13;;;;;;;9.23;7.20;;;;;;;14.77;100.00;155153.50;5031916;28;20450;-74
2022/10/02 09:57:14;;;;;;;12.37;8.70;;;;;;;14.90;100.00;155187.28;5029353;28;20458;-74
2022/10/02 10:00:02;;;;;;;5.67;4.00;;;;;;;14.67;100.00;155127.53;5040223;28;20456;-74
2022/10/02 10:03:09;;;;;;;7.27;4.20;;;;;;;14.53;100.00;155093.72;5037535;28;21009;-74
2022/10/02 10:05:57;;;;;;;4.70;3.40;;;;;;;14.40;100.00;155058.69;5038388;28;20478;-74
2022/10/02 10:08:54;;;;;;;10.67;6.90;;;;;;;14.31;100.00;155036.59;5038536;28;20466;-74
2022/10/02 10:11:54;;;;;;;4.47;4.07;;;;;;;14.16;100.00;154997.59;5037506;28;20461;-74
2022/10/02 10:14:50;;;;;;;7.50;4.77;;;;;;;14.21;100.00;155010.59;5038407;28;20455;-74
2022/10/02 10:18:04;;;;;;;6.20;5.43;;;;;;;14.03;100.00;154963.84;4981446;28;21004;-74
2022/10/02 10:21:01;;;;;;;6.83;4.63;;;;;;;13.87;100.00;154922.31;5036765;28;20448;-74
2022/10/02 10:23:50;;;;;;;5.83;5.10;;;;;;;13.80;100.00;154904.09;5037476;28;20455;-74
2022/10/02 10:26:42;;;;;;;5.40;4.90;;;;;;;13.55;100.00;154839.22;5037950;28;20475;-74
2022/10/02 10:29:53;;;;;;;5.17;4.47;;;;;;;13.47;100.00;154819.78;5039384;28;20769;-74
2022/10/02 10:32:50;;;;;;;6.13;5.53;;;;;;;13.41;100.00;154805.50;4977070;28;20472;-75
2022/10/02 10:35:25;;;;;;;7.03;5.40;;;;;;;13.31;100.00;154779.56;5035583;28;20461;-75
2022/10/02 10:41:00;;;;;;;10.50;6.70;;;;;;;13.18;100.00;154744.50;5038249;28;20493;-75
2022/10/02 10:43:51;;;;;;;10.83;9.60;;;;;;;13.15;100.00;154738.03;5034656;28;20463;-75
2022/10/02 10:46:32;;;;;;;9.63;6.40;;;;;;;13.31;100.00;154779.56;5035176;28;20455;-75
2022/10/02 10:49:22;;;;;;;7.13;5.67;;;;;;;13.32;100.00;154782.13;5039824;28;20466;-75
2022/10/02 10:51:53;;;;;;;6.37;5.73;;;;;;;13.31;100.00;154779.56;5037576;28;20460;-75
2022/10/02 10:54:50;;;;;;;9.73;6.40;;;;;;;13.35;100.00;154789.91;5053107;28;20453;-74
2022/10/02 10:57:24;;;;;;;7.67;6.60;;;;;;;13.43;100.00;154810.66;5039742;28;20462;-75
2022/10/02 11:00:12;;;;;;;10.00;6.10;;;;;;;13.43;100.00;154810.66;5045527;28;20462;-75
2022/10/02 11:02:54;;;;;;;10.27;6.87;;;;;;;13.30;100.00;154776.94;5036246;28;20463;-75
2022/10/02 11:05:50;;;;;;;6.13;5.43;;;;;;;13.27;100.00;154769.13;5038149;28;20490;-75
2022/10/02 11:08:36;;;;;;;7.43;6.70;;;;;;;13.24;100.00;154761.34;5038873;28;20689;-75
2022/10/02 11:11:08;;;;;;;8.83;6.57;;;;;;;13.23;100.00;154758.78;5037719;28;20457;-74
2022/10/02 11:13:50;;;;;;;6.90;6.20;;;;;;;13.30;100.00;154776.94;5038559;28;20764;-75
2022/10/02 11:16:33;;;;;;;7.97;7.17;;;;;;;13.25;100.00;154762.66;5038069;28;20442;-75
2022/10/02 11:19:10;;;;;;;6.40;5.33;;;;;;;13.34;100.00;154786.03;5035205;28;20464;-74
2022/10/02 11:22:07;;;;;;;7.77;4.90;;;;;;;13.50;100.00;154826.25;5044634;28;20489;-74
2022/10/02 11:25:07;;;;;;;6.10;5.30;;;;;;;13.54;100.00;154836.63;5016220;28;20452;-74
2022/10/02 11:28:06;;;;;;;5.57;5.07;;;;;;;13.52;100.00;154831.44;5038104;28;20487;-74
2022/10/02 11:30:40;;;;;;;5.57;5.07;;;;;;;13.61;100.00;154856.06;5038881;28;20799;-74
2022/10/02 11:33:21;;;;;;;6.20;5.60;;;;;;;13.57;100.00;154845.72;5037982;28;21025;-74
2022/10/02 11:36:08;;;;;;;6.90;6.20;;;;;;;13.57;100.00;154844.41;5037174;28;20443;-75
2022/10/02 11:38:55;;;;;;;6.80;6.20;;;;;;;13.50;100.00;154827.56;5040642;28;20532;-75
2022/10/02 11:41:37;;;;;;;5.60;5.10;;;;;;;13.43;100.00;154810.66;5038255;28;20605;-75
2022/10/02 11:44:34;;;;;;;5.73;5.13;;;;;;;13.47;100.00;154819.78;5038411;28;21076;-75
2022/10/02 11:47:31;;;;;;;5.00;4.50;;;;;;;13.48;100.00;154822.34;5038995;28;20493;-75
2022/10/02 11:50:33;;;;;;;3.93;3.63;;;;;;;13.52;100.00;154832.75;5020452;28;20444;-75
2022/10/02 11:53:30;;;;;;;3.60;3.30;;;;;;;13.45;100.00;154813.28;5012642;28;20477;-74
2022/10/02 11:56:21;;;;;;;2.83;2.63;;;;;;;13.34;100.00;154787.28;5023321;28;20446;-74
2022/10/02 11:59:01;;;;;;;2.23;2.03;;;;;;;13.40;100.00;154802.88;5037873;28;20638;-75
2022/10/02 12:01:34;;;;;;;2.40;2.20;;;;;;;13.37;100.00;154793.78;5039217;28;20909;-75
2022/10/02 12:04:12;;;;;;;2.10;1.90;;;;;;;13.33;100.00;154783.44;5031801;28;20500;-75
2022/10/02 12:06:50;;;;;;;1.50;1.40;;;;;;;13.30;100.00;154775.63;5031548;28;20483;-75
2022/10/02 12:09:24;;;;;;;2.20;1.50;;;;;;;13.34;100.00;154787.28;5038091;28;20525;-75